createdAt,value
2018-10-11T00:04:43.609Z,18.50
2018-10-11T00:09:48.618Z,18.50
2018-10-11T00:14:53.599Z,18.50
2018-10-11T00:19:58.521Z,18.40
2018-10-11T00:25:03.647Z,18.30
2018-10-11T00:30:08.659Z,18.20
2018-10-11T00:35:13.598Z,18.10
2018-10-11T00:40:18.714Z,18.10
2018-10-11T00:45:23.840Z,18.20
2018-10-11T00:50:28.802Z,18.30
2018-10-11T00:55:33.968Z,18.50
2018-10-11T01:00:38.922Z,18.60
2018-10-11T01:05:43.989Z,18.60
2018-10-11T01:10:49.052Z,18.50
2018-10-11T01:15:54.175Z,18.40
2018-10-11T01:20:59.171Z,18.30
2018-10-11T01:26:04.378Z,18.30
2018-10-11T01:31:14.621Z,18.30
2018-10-11T01:36:19.947Z,18.30
2018-10-11T01:41:24.954Z,18.20
2018-10-11T01:46:29.833Z,18.10
2018-10-11T01:51:34.783Z,18.10
2018-10-11T01:56:39.724Z,18.20
2018-10-11T02:01:44.600Z,18.10
2018-10-11T02:06:49.958Z,18.10
2018-10-11T02:11:54.805Z,17.90
2018-10-11T02:16:59.988Z,17.70
2018-10-11T02:22:04.877Z,17.70
2018-10-11T02:27:09.781Z,17.80
2018-10-11T02:32:14.881Z,17.70
2018-10-11T02:37:19.763Z,17.50
2018-10-11T02:42:25.189Z,17.50
2018-10-11T02:47:30.217Z,17.70
2018-10-11T02:52:35.114Z,18.00
2018-10-11T02:57:50.992Z,18.00
2018-10-11T03:02:56.233Z,18.00
2018-10-11T03:08:01.511Z,17.80
2018-10-11T03:13:09.648Z,17.70
2018-10-11T03:18:15.099Z,17.60
2018-10-11T03:23:20.184Z,17.50
2018-10-11T03:28:25.067Z,17.40
2018-10-11T03:33:30.213Z,17.40
2018-10-11T03:38:35.282Z,17.30
2018-10-11T03:43:40.268Z,17.30
2018-10-11T03:48:45.220Z,17.30
2018-10-11T03:53:50.073Z,17.20
2018-10-11T03:58:55.664Z,17.30
2018-10-11T04:04:00.675Z,17.50
2018-10-11T04:09:06.520Z,17.70
2018-10-11T04:14:11.406Z,17.70
2018-10-11T04:19:16.369Z,17.70
2018-10-11T04:24:21.389Z,17.80
2018-10-11T04:29:26.759Z,17.80
2018-10-11T04:34:32.036Z,17.70
2018-10-11T04:39:37.047Z,17.70
2018-10-11T04:44:42.134Z,17.70
2018-10-11T04:49:47.187Z,17.70
2018-10-11T04:54:52.131Z,17.60
2018-10-11T04:59:57.201Z,17.70
2018-10-11T05:05:02.161Z,17.70
2018-10-11T05:10:07.178Z,17.70
2018-10-11T05:15:12.642Z,17.70
2018-10-11T05:20:22.870Z,17.80
2018-10-11T05:25:27.948Z,17.80
2018-10-11T05:30:33.000Z,17.70
2018-10-11T05:35:37.945Z,17.70
2018-10-11T05:40:42.915Z,17.60
2018-10-11T05:45:53.765Z,17.60
2018-10-11T05:51:00.400Z,17.60
2018-10-11T05:56:05.565Z,17.70
2018-10-11T06:01:10.693Z,17.70
2018-10-11T06:06:15.603Z,17.60
2018-10-11T06:11:20.976Z,17.60
2018-10-11T06:16:25.962Z,17.70
2018-10-11T06:21:31.119Z,17.90
2018-10-11T06:26:36.061Z,17.90
2018-10-11T06:31:41.215Z,17.90
2018-10-11T06:36:46.364Z,18.30
2018-10-11T06:41:51.369Z,18.50
2018-10-11T06:46:56.703Z,18.50
2018-10-11T06:52:02.085Z,18.70
2018-10-11T06:57:07.589Z,18.90
2018-10-11T07:02:12.749Z,18.90
2018-10-11T07:07:17.795Z,19.20
2018-10-11T07:12:22.680Z,19.40
2018-10-11T07:17:27.794Z,19.50
2018-10-11T07:22:33.098Z,19.60
2018-10-11T07:27:38.160Z,19.60
2018-10-11T07:32:43.117Z,19.80
2018-10-11T07:37:48.067Z,20.00
2018-10-11T07:42:53.121Z,20.20
2018-10-11T07:47:58.728Z,20.30
2018-10-11T07:53:03.587Z,20.40
2018-10-11T07:58:08.486Z,20.60
2018-10-11T08:03:13.529Z,20.80
2018-10-11T08:08:18.435Z,21.10
2018-10-11T08:13:23.607Z,21.30
2018-10-11T08:18:28.636Z,21.50
2018-10-11T08:23:33.607Z,21.60
2018-10-11T08:28:38.659Z,21.70
2018-10-11T08:33:43.512Z,21.90
2018-10-11T08:38:48.437Z,22.00
2018-10-11T08:43:53.425Z,22.00
2018-10-11T08:48:58.425Z,22.10
2018-10-11T08:54:08.380Z,22.10
2018-10-11T08:59:13.337Z,22.20
2018-10-11T09:04:18.164Z,22.20
2018-10-11T09:09:23.168Z,22.20
2018-10-11T09:14:28.415Z,22.30
2018-10-11T09:19:33.374Z,22.60
2018-10-11T09:24:38.246Z,23.00
2018-10-11T09:29:43.212Z,22.80
2018-10-11T09:34:48.270Z,22.80
2018-10-11T09:39:53.318Z,23.00
2018-10-11T09:44:58.417Z,23.30
2018-10-11T09:50:03.329Z,23.50
2018-10-11T09:55:08.382Z,23.50
2018-10-11T10:00:18.451Z,23.80
2018-10-11T10:05:23.429Z,23.80
2018-10-11T10:10:28.481Z,24.00
2018-10-11T10:15:33.910Z,24.00
2018-10-11T10:20:38.827Z,24.20
2018-10-11T10:25:43.796Z,24.20
2018-10-11T10:30:53.869Z,24.50
2018-10-11T10:35:59.076Z,24.80
2018-10-11T10:41:04.282Z,25.50
2018-10-11T10:46:09.576Z,26.00
2018-10-11T10:51:14.422Z,26.20
2018-10-11T10:56:19.408Z,26.60
2018-10-11T11:01:24.858Z,26.50
2018-10-11T11:06:30.061Z,26.40
2018-10-11T11:11:35.031Z,26.70
2018-10-11T11:16:39.928Z,26.60
2018-10-11T11:21:44.841Z,26.60
2018-10-11T11:26:49.776Z,26.40
2018-10-11T11:31:54.905Z,26.30
2018-10-11T11:36:59.877Z,26.60
2018-10-11T11:42:05.024Z,26.80
2018-10-11T11:47:09.941Z,26.70
2018-10-11T11:52:15.762Z,27.50
2018-10-11T11:57:20.709Z,27.20
2018-10-11T12:02:26.497Z,26.70
2018-10-11T12:07:31.546Z,26.70
2018-10-11T12:12:53.728Z,27.10
2018-10-11T12:18:00.020Z,27.50
2018-10-11T12:23:06.049Z,26.80
2018-10-11T12:28:10.937Z,27.10
2018-10-11T12:33:16.978Z,27.30
2018-10-11T12:38:21.980Z,27.50
2018-10-11T12:43:27.088Z,27.00
2018-10-11T12:48:32.070Z,26.30
2018-10-11T12:53:41.120Z,26.00
2018-10-11T12:58:42.133Z,26.00
2018-10-11T13:03:47.020Z,26.00
2018-10-11T13:08:51.909Z,26.40
2018-10-11T13:13:57.253Z,27.30
2018-10-11T13:19:02.622Z,29.30
2018-10-11T13:24:07.912Z,29.30
2018-10-11T13:29:13.052Z,28.60
2018-10-11T13:34:18.018Z,28.00
2018-10-11T13:39:22.905Z,27.70
2018-10-11T13:44:28.086Z,27.80
2018-10-11T13:49:33.013Z,29.60
2018-10-11T13:54:37.963Z,30.90
2018-10-11T13:59:42.899Z,30.70
2018-10-11T14:04:47.991Z,31.20
2018-10-11T14:09:52.935Z,30.30
2018-10-11T14:14:58.170Z,29.80
2018-10-11T14:20:03.183Z,29.40
2018-10-11T14:25:08.350Z,29.90
2018-10-11T14:30:13.360Z,29.10
2018-10-11T14:35:18.620Z,29.10
2018-10-11T14:40:23.539Z,28.80
2018-10-11T14:45:28.549Z,29.40
2018-10-11T14:50:33.401Z,29.10
2018-10-11T14:55:38.461Z,28.60
2018-10-11T15:00:43.619Z,28.70
2018-10-11T15:05:48.566Z,27.00
2018-10-11T15:10:53.861Z,27.20
2018-10-11T15:15:58.841Z,26.90
2018-10-11T15:21:03.833Z,27.00
2018-10-11T15:26:08.816Z,26.90
2018-10-11T15:31:13.927Z,26.90
2018-10-11T15:36:18.998Z,26.50
2018-10-11T15:41:24.796Z,26.00
2018-10-11T15:46:30.003Z,25.20
2018-10-11T15:51:34.988Z,24.80
2018-10-11T15:56:39.909Z,24.60
2018-10-11T16:01:45.000Z,24.30
2018-10-11T16:06:49.919Z,24.30
2018-10-11T16:11:54.974Z,24.10
2018-10-11T16:16:59.959Z,23.90
2018-10-11T16:22:05.083Z,23.40
2018-10-11T16:27:10.108Z,23.00
2018-10-11T16:32:15.215Z,22.90
2018-10-11T16:37:20.159Z,23.00
2018-10-11T16:42:25.311Z,22.90
2018-10-11T16:47:30.221Z,23.00
2018-10-11T16:52:35.139Z,23.00
2018-10-11T16:57:40.197Z,23.10
2018-10-11T17:02:45.165Z,23.10
2018-10-11T17:07:50.155Z,23.00
2018-10-11T17:12:55.305Z,22.90
2018-10-11T17:18:00.276Z,23.10
2018-10-11T17:23:05.193Z,23.30
2018-10-11T17:28:10.083Z,23.10
2018-10-11T17:33:15.113Z,22.90
2018-10-11T17:38:20.056Z,22.80
2018-10-11T17:43:25.924Z,22.80
2018-10-11T17:48:30.958Z,22.80
2018-10-11T17:53:36.345Z,22.60
2018-10-11T17:58:41.360Z,22.70
2018-10-11T18:03:46.316Z,22.70
2018-10-11T18:08:51.239Z,22.50
2018-10-11T18:13:56.372Z,22.60
2018-10-11T18:19:01.643Z,22.60
2018-10-11T18:24:06.738Z,22.50
2018-10-11T18:29:12.321Z,22.50
2018-10-11T18:34:17.169Z,22.30
2018-10-11T18:39:22.762Z,22.20
2018-10-11T18:44:28.217Z,22.20
2018-10-11T18:49:33.137Z,22.30
2018-10-11T18:54:38.077Z,22.30
2018-10-11T18:59:43.073Z,22.20
2018-10-11T19:04:47.934Z,22.10
2018-10-11T19:09:53.297Z,21.80
2018-10-11T19:14:58.190Z,21.80
2018-10-11T19:20:03.407Z,21.70
2018-10-11T19:25:08.530Z,21.80
2018-10-11T19:30:13.417Z,21.50
2018-10-11T19:35:18.290Z,21.50
2018-10-11T19:40:23.396Z,21.50
2018-10-11T19:45:28.605Z,21.40
2018-10-11T19:50:33.555Z,21.30
2018-10-11T19:55:38.430Z,21.10
2018-10-11T20:00:43.393Z,21.00
2018-10-11T20:05:48.452Z,20.80
2018-10-11T20:10:53.699Z,20.70
2018-10-11T20:15:58.616Z,20.80
2018-10-11T20:21:03.664Z,20.70
2018-10-11T20:26:08.604Z,20.30
2018-10-11T20:31:13.674Z,20.20
2018-10-11T20:36:18.637Z,20.30
2018-10-11T20:41:23.786Z,20.20
2018-10-11T20:46:28.607Z,20.10
2018-10-11T20:51:33.600Z,19.80
2018-10-11T20:56:38.724Z,19.80
2018-10-11T21:01:43.668Z,19.70
2018-10-11T21:06:48.755Z,19.70
2018-10-11T21:11:53.976Z,19.60
2018-10-11T21:16:58.958Z,19.70
2018-10-11T21:22:03.847Z,19.60
2018-10-11T21:27:08.857Z,19.70
2018-10-11T21:32:13.887Z,19.50
2018-10-11T21:37:18.972Z,19.40
2018-10-11T21:42:24.046Z,19.40
2018-10-11T21:47:28.909Z,19.40
2018-10-11T21:52:33.834Z,19.50
2018-10-11T21:57:38.874Z,19.60
2018-10-11T22:02:43.869Z,19.60
2018-10-11T22:07:49.020Z,19.40
2018-10-11T22:12:54.225Z,19.40
2018-10-11T22:17:59.291Z,19.30
2018-10-11T22:23:04.218Z,19.20
2018-10-11T22:28:09.380Z,19.10
2018-10-11T22:33:14.345Z,19.10
2018-10-11T22:38:19.274Z,19.00
2018-10-11T22:43:24.461Z,19.00
2018-10-11T22:48:29.498Z,19.00
2018-10-11T22:53:34.450Z,19.00
2018-10-11T22:58:39.424Z,19.20
2018-10-11T23:03:44.469Z,19.50
2018-10-11T23:08:49.489Z,19.70
2018-10-11T23:13:54.581Z,19.80
2018-10-11T23:18:59.523Z,19.70
2018-10-11T23:24:04.682Z,19.60
2018-10-11T23:29:09.558Z,19.60
2018-10-11T23:34:14.571Z,19.60
2018-10-11T23:39:19.545Z,19.40
2018-10-11T23:44:24.483Z,19.50
2018-10-11T23:49:29.415Z,19.40
2018-10-11T23:54:34.630Z,19.40
2018-10-11T23:59:39.543Z,19.30
